Pagina principale
METAR-TAF:

METAR-TAF

Aeroporti :

Sion, Svizzera

latitudine: 46-13N, longitudine: 007-20E, altezza: 482 m

Osservazione

Il bollettino è stato emesso 34 minuti fa, alle 18:50 UTC
Vento 10 kt da ovest/sud-ovest, variando fra sud/sud-ovest e ovest
Temperature 21°C
Umidità 35%
Pressione 1019 hPa
Visibilità 10 km o più
nessuna nube inferiore a 1500 m e nessun cumulonembo

METAR: LSGS 231850Z AUTO 25010KT 210V270 CAVOK 21/05 Q1019

Ora: 21:24 (19:24 UTC)

Previsione

Il bollettino è stato emesso 4 ore e 59 minuti fa, alle 14:25 UTC
Previsione valida dal 23 alle 15 UTC al 23 alle 24 UTC
Vento 15 kt da ovest
Visibilità 10 km o più
Poco nuvoloso ad un'altezza di 8000 ft
Evoluzione graduale
dal 23 alle 18 UTC al 23 alle 20 UTC
Vento 5 kt da ovest

TAF: LSGS 231425Z 2315/2324 26015KT 9999 FEW080 BECMG 2318/2320 26005KT

Osservazioni e previsioni meteorologiche di più di 4000 aeroporti (messaggi METAR e TAF).

Le stazioni disponibili sono rappresentate dai dischi gialli e rossi sulla carta.

Puntare il mouse per vedere il nome della stazione.

Clicca sopra per visualizzare le osservazioni e previsioni meteorologiche.

Per cambiare la mappa : fare clic sui pulsanti verdi con una croce nera per ingrandire, il pulsante verde con un trattino per diminuire, o sulla freccia verde per le mappe adiacenti.


METAR-TAF: